sensor_id;sensor_type;location;lat;lon;timestamp;P1;durP1;ratioP1;P2;durP2;ratioP2
18893;SDS011;9579;49.488;8.226;2022-10-16T06:13:23;2.40;;;2.30;;
18893;SDS011;9579;49.488;8.226;2022-10-16T06:16:10;2.95;;;2.30;;
18893;SDS011;9579;49.488;8.226;2022-10-16T06:18:57;2.78;;;2.30;;
18893;SDS011;9579;49.488;8.226;2022-10-16T06:21:45;2.63;;;2.38;;
18893;SDS011;9579;49.488;8.226;2022-10-16T06:24:33;2.47;;;2.28;;
18893;SDS011;9579;49.488;8.226;2022-10-16T06:27:21;3.03;;;2.08;;
18893;SDS011;9579;49.488;8.226;2022-10-16T06:30:09;2.58;;;2.38;;
18893;SDS011;9579;49.488;8.226;2022-10-16T06:32:56;2.88;;;2.53;;
18893;SDS011;9579;49.488;8.226;2022-10-16T06:35:43;4.32;;;3.78;;
18893;SDS011;9579;49.488;8.226;2022-10-16T06:38:30;6.15;;;5.65;;
18893;SDS011;9579;49.488;8.226;2022-10-16T06:41:18;12.68;;;10.85;;
18893;SDS011;9579;49.488;8.226;2022-10-16T06:44:08;9.60;;;8.43;;
18893;SDS011;9579;49.488;8.226;2022-10-16T06:46:55;7.07;;;6.15;;
18893;SDS011;9579;49.488;8.226;2022-10-16T06:49:42;5.95;;;5.38;;
18893;SDS011;9579;49.488;8.226;2022-10-16T06:52:29;5.40;;;5.00;;
18893;SDS011;9579;49.488;8.226;2022-10-16T06:55:16;4.78;;;4.47;;
18893;SDS011;9579;49.488;8.226;2022-10-16T06:58:03;4.32;;;3.97;;
18893;SDS011;9579;49.488;8.226;2022-10-16T07:00:56;2.92;;;2.67;;
18893;SDS011;9579;49.488;8.226;2022-10-16T07:03:43;2.80;;;2.60;;
18893;SDS011;9579;49.488;8.226;2022-10-16T07:06:32;2.95;;;2.40;;
18893;SDS011;9579;49.488;8.226;2022-10-16T07:09:20;2.60;;;2.40;;
18893;SDS011;9579;49.488;8.226;2022-10-16T07:12:07;4.97;;;3.80;;
18893;SDS011;9579;49.488;8.226;2022-10-16T07:14:54;5.15;;;4.63;;
18893;SDS011;9579;49.488;8.226;2022-10-16T07:17:42;3.28;;;2.95;;
18893;SDS011;9579;49.488;8.226;2022-10-16T07:20:30;5.05;;;3.10;;
18893;SDS011;9579;49.488;8.226;2022-10-16T07:23:17;7.28;;;6.63;;
18893;SDS011;9579;49.488;8.226;2022-10-16T07:26:04;8.55;;;7.75;;
18893;SDS011;9579;49.488;8.226;2022-10-16T07:28:51;5.10;;;4.70;;
18893;SDS011;9579;49.488;8.226;2022-10-16T07:31:39;3.92;;;3.63;;
18893;SDS011;9579;49.488;8.226;2022-10-16T07:34:28;3.28;;;2.97;;
18893;SDS011;9579;49.488;8.226;2022-10-16T07:37:15;3.60;;;2.90;;
18893;SDS011;9579;49.488;8.226;2022-10-16T07:40:02;4.00;;;3.67;;
18893;SDS011;9579;49.488;8.226;2022-10-16T07:42:50;3.80;;;3.50;;
18893;SDS011;9579;49.488;8.226;2022-10-16T07:45:37;3.28;;;3.08;;
18893;SDS011;9579;49.488;8.226;2022-10-16T07:48:33;3.20;;;2.90;;
18893;SDS011;9579;49.488;8.226;2022-10-16T07:51:23;4.13;;;3.03;;
18893;SDS011;9579;49.488;8.226;2022-10-16T07:54:11;3.67;;;2.65;;
18893;SDS011;9579;49.488;8.226;2022-10-16T07:56:58;2.60;;;2.40;;
18893;SDS011;9579;49.488;8.226;2022-10-16T07:59:46;2.58;;;2.38;;
18893;SDS011;9579;49.488;8.226;2022-10-16T08:02:33;2.95;;;2.75;;
18893;SDS011;9579;49.488;8.226;2022-10-16T08:05:20;3.58;;;3.20;;
18893;SDS011;9579;49.488;8.226;2022-10-16T08:08:13;4.13;;;3.83;;
18893;SDS011;9579;49.488;8.226;2022-10-16T08:11:01;3.55;;;3.03;;
18893;SDS011;9579;49.488;8.226;2022-10-16T08:13:49;4.72;;;2.78;;
18893;SDS011;9579;49.488;8.226;2022-10-16T08:16:36;3.75;;;3.40;;
18893;SDS011;9579;49.488;8.226;2022-10-16T08:19:23;6.82;;;6.30;;
18893;SDS011;9579;49.488;8.226;2022-10-16T08:22:10;6.40;;;5.80;;
18893;SDS011;9579;49.488;8.226;2022-10-16T08:24:59;5.20;;;4.00;;
18893;SDS011;9579;49.488;8.226;2022-10-16T08:27:46;5.50;;;4.03;;
18893;SDS011;9579;49.488;8.226;2022-10-16T08:30:33;6.40;;;4.85;;
18893;SDS011;9579;49.488;8.226;2022-10-16T08:33:20;5.38;;;4.32;;
18893;SDS011;9579;49.488;8.226;2022-10-16T08:36:09;5.97;;;4.50;;
18893;SDS011;9579;49.488;8.226;2022-10-16T08:38:57;3.90;;;3.40;;
18893;SDS011;9579;49.488;8.226;2022-10-16T08:41:53;4.43;;;4.00;;
18893;SDS011;9579;49.488;8.226;2022-10-16T08:44:57;3.90;;;3.50;;
18893;SDS011;9579;49.488;8.226;2022-10-16T08:48:10;4.25;;;3.80;;
18893;SDS011;9579;49.488;8.226;2022-10-16T08:51:06;4.75;;;4.38;;
18893;SDS011;9579;49.488;8.226;2022-10-16T08:53:58;3.30;;;3.00;;
18893;SDS011;9579;49.488;8.226;2022-10-16T08:56:48;3.08;;;2.78;;
18893;SDS011;9579;49.488;8.226;2022-10-16T08:59:36;3.33;;;2.92;;
18893;SDS011;9579;49.488;8.226;2022-10-16T09:02:24;2.70;;;2.50;;
18893;SDS011;9579;49.488;8.226;2022-10-16T09:05:19;3.05;;;2.60;;
18893;SDS011;9579;49.488;8.226;2022-10-16T09:08:28;2.60;;;2.40;;
18893;SDS011;9579;49.488;8.226;2022-10-16T09:11:23;2.28;;;2.17;;
18893;SDS011;9579;49.488;8.226;2022-10-16T09:14:22;2.33;;;2.10;;
18893;SDS011;9579;49.488;8.226;2022-10-16T09:17:38;4.10;;;3.00;;
18893;SDS011;9579;49.488;8.226;2022-10-16T09:20:31;3.88;;;2.88;;
18893;SDS011;9579;49.488;8.226;2022-10-16T09:23:25;2.63;;;2.42;;
18893;SDS011;9579;49.488;8.226;2022-10-16T09:26:14;3.28;;;2.50;;
18893;SDS011;9579;49.488;8.226;2022-10-16T09:29:03;3.10;;;2.80;;
18893;SDS011;9579;49.488;8.226;2022-10-16T09:31:51;3.30;;;3.00;;
18893;SDS011;9579;49.488;8.226;2022-10-16T09:34:42;3.25;;;2.95;;
18893;SDS011;9579;49.488;8.226;2022-10-16T09:37:31;3.00;;;2.70;;
18893;SDS011;9579;49.488;8.226;2022-10-16T09:40:25;3.88;;;3.28;;
18893;SDS011;9579;49.488;8.226;2022-10-16T09:43:20;3.10;;;2.80;;
18893;SDS011;9579;49.488;8.226;2022-10-16T09:46:19;3.20;;;2.90;;
18893;SDS011;9579;49.488;8.226;2022-10-16T09:49:20;3.13;;;2.83;;
18893;SDS011;9579;49.488;8.226;2022-10-16T09:52:11;3.80;;;3.38;;
18893;SDS011;9579;49.488;8.226;2022-10-16T09:55:00;4.10;;;3.15;;
18893;SDS011;9579;49.488;8.226;2022-10-16T09:57:49;4.97;;;3.60;;
18893;SDS011;9579;49.488;8.226;2022-10-16T10:00:36;6.22;;;4.05;;
18893;SDS011;9579;49.488;8.226;2022-10-16T10:03:33;3.55;;;3.25;;
18893;SDS011;9579;49.488;8.226;2022-10-16T10:06:25;4.15;;;3.50;;
18893;SDS011;9579;49.488;8.226;2022-10-16T10:09:16;3.33;;;3.03;;
18893;SDS011;9579;49.488;8.226;2022-10-16T10:12:05;3.40;;;3.10;;
18893;SDS011;9579;49.488;8.226;2022-10-16T10:15:05;3.80;;;3.50;;
18893;SDS011;9579;49.488;8.226;2022-10-16T10:17:57;3.97;;;3.50;;
18893;SDS011;9579;49.488;8.226;2022-10-16T10:20:44;3.70;;;3.40;;
18893;SDS011;9579;49.488;8.226;2022-10-16T10:23:32;3.90;;;3.50;;
18893;SDS011;9579;49.488;8.226;2022-10-16T10:26:20;4.82;;;3.20;;
18893;SDS011;9579;49.488;8.226;2022-10-16T10:29:14;6.05;;;3.30;;
18893;SDS011;9579;49.488;8.226;2022-10-16T10:32:15;4.15;;;3.30;;
18893;SDS011;9579;49.488;8.226;2022-10-16T10:35:13;3.05;;;2.85;;
18893;SDS011;9579;49.488;8.226;2022-10-16T10:38:06;3.50;;;3.30;;
18893;SDS011;9579;49.488;8.226;2022-10-16T10:41:08;3.72;;;3.28;;
18893;SDS011;9579;49.488;8.226;2022-10-16T10:44:11;4.85;;;3.60;;
18893;SDS011;9579;49.488;8.226;2022-10-16T10:47:06;3.58;;;3.28;;
18893;SDS011;9579;49.488;8.226;2022-10-16T10:50:05;5.72;;;3.60;;
18893;SDS011;9579;49.488;8.226;2022-10-16T10:52:59;4.55;;;3.80;;
18893;SDS011;9579;49.488;8.226;2022-10-16T10:55:59;3.58;;;3.28;;
18893;SDS011;9579;49.488;8.226;2022-10-16T11:02:16;4.28;;;3.40;;
18893;SDS011;9579;49.488;8.226;2022-10-16T11:05:18;3.30;;;3.10;;
18893;SDS011;9579;49.488;8.226;2022-10-16T11:08:16;4.40;;;3.10;;
18893;SDS011;9579;49.488;8.226;2022-10-16T11:11:08;3.92;;;2.90;;
18893;SDS011;9579;49.488;8.226;2022-10-16T11:14:03;3.70;;;3.28;;
18893;SDS011;9579;49.488;8.226;2022-10-16T11:16:59;3.55;;;3.25;;
18893;SDS011;9579;49.488;8.226;2022-10-16T11:19:51;3.90;;;3.60;;
18893;SDS011;9579;49.488;8.226;2022-10-16T11:22:41;4.00;;;3.10;;
18893;SDS011;9579;49.488;8.226;2022-10-16T11:25:32;3.60;;;3.30;;
18893;SDS011;9579;49.488;8.226;2022-10-16T11:28:20;3.80;;;2.95;;
18893;SDS011;9579;49.488;8.226;2022-10-16T11:31:13;3.25;;;2.95;;
18893;SDS011;9579;49.488;8.226;2022-10-16T11:34:09;3.70;;;3.15;;
18893;SDS011;9579;49.488;8.226;2022-10-16T11:37:05;3.05;;;2.75;;
18893;SDS011;9579;49.488;8.226;2022-10-16T11:39:57;5.03;;;2.70;;
18893;SDS011;9579;49.488;8.226;2022-10-16T11:42:51;4.38;;;3.03;;
18893;SDS011;9579;49.488;8.226;2022-10-16T11:45:42;2.90;;;2.70;;
18893;SDS011;9579;49.488;8.226;2022-10-16T11:48:33;2.92;;;2.72;;
18893;SDS011;9579;49.488;8.226;2022-10-16T11:51:29;3.22;;;2.60;;
18893;SDS011;9579;49.488;8.226;2022-10-16T11:54:22;2.60;;;2.40;;
18893;SDS011;9579;49.488;8.226;2022-10-16T11:57:16;3.15;;;2.55;;
18893;SDS011;9579;49.488;8.226;2022-10-16T12:00:08;3.65;;;2.90;;
18893;SDS011;9579;49.488;8.226;2022-10-16T12:03:03;2.78;;;2.58;;
18893;SDS011;9579;49.488;8.226;2022-10-16T12:06:06;2.38;;;2.17;;
18893;SDS011;9579;49.488;8.226;2022-10-16T12:09:09;3.53;;;3.22;;
18893;SDS011;9579;49.488;8.226;2022-10-16T12:12:03;3.40;;;3.10;;
18893;SDS011;9579;49.488;8.226;2022-10-16T12:14:59;3.92;;;2.60;;
18893;SDS011;9579;49.488;8.226;2022-10-16T12:17:46;3.17;;;2.90;;
18893;SDS011;9579;49.488;8.226;2022-10-16T12:20:34;3.22;;;2.92;;
18893;SDS011;9579;49.488;8.226;2022-10-16T12:23:22;4.97;;;2.72;;
18893;SDS011;9579;49.488;8.226;2022-10-16T12:26:12;2.80;;;2.60;;
18893;SDS011;9579;49.488;8.226;2022-10-16T12:29:09;3.45;;;3.08;;
18893;SDS011;9579;49.488;8.226;2022-10-16T12:32:00;3.33;;;2.80;;
18893;SDS011;9579;49.488;8.226;2022-10-16T12:34:49;2.60;;;2.40;;
18893;SDS011;9579;49.488;8.226;2022-10-16T12:37:36;3.13;;;2.60;;
18893;SDS011;9579;49.488;8.226;2022-10-16T12:40:26;3.03;;;2.72;;
18893;SDS011;9579;49.488;8.226;2022-10-16T12:43:25;3.33;;;2.47;;
18893;SDS011;9579;49.488;8.226;2022-10-16T12:46:33;3.15;;;2.60;;
18893;SDS011;9579;49.488;8.226;2022-10-16T12:49:29;2.97;;;2.50;;
18893;SDS011;9579;49.488;8.226;2022-10-16T12:52:28;5.72;;;2.70;;
18893;SDS011;9579;49.488;8.226;2022-10-16T12:55:22;2.80;;;2.60;;
18893;SDS011;9579;49.488;8.226;2022-10-16T12:58:17;3.35;;;2.70;;
18893;SDS011;9579;49.488;8.226;2022-10-16T13:01:25;3.03;;;2.72;;
18893;SDS011;9579;49.488;8.226;2022-10-16T13:07:38;3.88;;;2.65;;
18893;SDS011;9579;49.488;8.226;2022-10-16T13:10:35;2.80;;;2.60;;
18893;SDS011;9579;49.488;8.226;2022-10-16T13:13:37;4.65;;;2.80;;
18893;SDS011;9579;49.488;8.226;2022-10-16T13:16:38;3.88;;;2.88;;
18893;SDS011;9579;49.488;8.226;2022-10-16T13:19:38;3.78;;;2.70;;
18893;SDS011;9579;49.488;8.226;2022-10-16T13:22:33;3.03;;;2.60;;
18893;SDS011;9579;49.488;8.226;2022-10-16T13:25:28;3.25;;;2.83;;
18893;SDS011;9579;49.488;8.226;2022-10-16T13:28:27;3.40;;;3.10;;
18893;SDS011;9579;49.488;8.226;2022-10-16T13:31:19;2.80;;;2.60;;
18893;SDS011;9579;49.488;8.226;2022-10-16T13:34:11;3.10;;;2.80;;
18893;SDS011;9579;49.488;8.226;2022-10-16T13:37:01;4.10;;;2.90;;
18893;SDS011;9579;49.488;8.226;2022-10-16T13:39:48;3.67;;;3.00;;
18893;SDS011;9579;49.488;8.226;2022-10-16T13:42:35;3.85;;;2.92;;
18893;SDS011;9579;49.488;8.226;2022-10-16T13:45:24;3.42;;;2.97;;
18893;SDS011;9579;49.488;8.226;2022-10-16T13:48:13;4.30;;;3.90;;
18893;SDS011;9579;49.488;8.226;2022-10-16T13:51:01;6.22;;;5.70;;
18893;SDS011;9579;49.488;8.226;2022-10-16T13:53:49;4.68;;;3.90;;
18893;SDS011;9579;49.488;8.226;2022-10-16T13:56:38;4.90;;;3.88;;
18893;SDS011;9579;49.488;8.226;2022-10-16T13:59:26;5.60;;;3.47;;
18893;SDS011;9579;49.488;8.226;2022-10-16T14:02:22;3.10;;;2.80;;
18893;SDS011;9579;49.488;8.226;2022-10-16T14:05:14;3.20;;;2.90;;
18893;SDS011;9579;49.488;8.226;2022-10-16T14:08:01;3.70;;;3.05;;
18893;SDS011;9579;49.488;8.226;2022-10-16T14:10:49;3.25;;;3.05;;
18893;SDS011;9579;49.488;8.226;2022-10-16T14:13:38;4.13;;;3.13;;
18893;SDS011;9579;49.488;8.226;2022-10-16T14:16:30;3.95;;;3.10;;
18893;SDS011;9579;49.488;8.226;2022-10-16T14:19:20;4.55;;;2.95;;
18893;SDS011;9579;49.488;8.226;2022-10-16T14:22:19;5.50;;;3.30;;
18893;SDS011;9579;49.488;8.226;2022-10-16T14:25:22;4.60;;;3.05;;
18893;SDS011;9579;49.488;8.226;2022-10-16T14:28:15;5.35;;;3.42;;
18893;SDS011;9579;49.488;8.226;2022-10-16T14:31:17;6.68;;;3.10;;
18893;SDS011;9579;49.488;8.226;2022-10-16T14:34:23;5.10;;;3.35;;
18893;SDS011;9579;49.488;8.226;2022-10-16T14:37:14;3.58;;;2.92;;
18893;SDS011;9579;49.488;8.226;2022-10-16T14:40:13;5.90;;;3.20;;
18893;SDS011;9579;49.488;8.226;2022-10-16T14:43:02;3.45;;;2.70;;
18893;SDS011;9579;49.488;8.226;2022-10-16T14:45:50;3.75;;;2.90;;
18893;SDS011;9579;49.488;8.226;2022-10-16T14:48:40;6.97;;;3.00;;
18893;SDS011;9579;49.488;8.226;2022-10-16T14:51:28;3.47;;;3.17;;
18893;SDS011;9579;49.488;8.226;2022-10-16T14:54:17;5.82;;;3.20;;
18893;SDS011;9579;49.488;8.226;2022-10-16T14:57:05;5.10;;;3.33;;
18893;SDS011;9579;49.488;8.226;2022-10-16T15:00:03;4.35;;;3.00;;
18893;SDS011;9579;49.488;8.226;2022-10-16T15:02:56;3.83;;;2.63;;
18893;SDS011;9579;49.488;8.226;2022-10-16T15:05:43;3.50;;;3.20;;
18893;SDS011;9579;49.488;8.226;2022-10-16T15:08:30;3.40;;;2.90;;
18893;SDS011;9579;49.488;8.226;2022-10-16T15:11:19;3.20;;;2.97;;
18893;SDS011;9579;49.488;8.226;2022-10-16T15:14:08;3.42;;;3.00;;
18893;SDS011;9579;49.488;8.226;2022-10-16T15:16:57;3.90;;;2.60;;
18893;SDS011;9579;49.488;8.226;2022-10-16T15:19:44;5.05;;;3.00;;
18893;SDS011;9579;49.488;8.226;2022-10-16T15:22:31;3.92;;;2.80;;
18893;SDS011;9579;49.488;8.226;2022-10-16T15:25:25;3.25;;;3.00;;
18893;SDS011;9579;49.488;8.226;2022-10-16T15:28:18;3.35;;;3.13;;
18893;SDS011;9579;49.488;8.226;2022-10-16T15:31:06;4.03;;;3.00;;
18893;SDS011;9579;49.488;8.226;2022-10-16T15:33:53;3.47;;;2.85;;
18893;SDS011;9579;49.488;8.226;2022-10-16T15:36:43;3.05;;;2.85;;
18893;SDS011;9579;49.488;8.226;2022-10-16T15:39:30;3.28;;;2.97;;
18893;SDS011;9579;49.488;8.226;2022-10-16T15:42:17;2.55;;;2.38;;
18893;SDS011;9579;49.488;8.226;2022-10-16T15:45:06;3.13;;;2.63;;
18893;SDS011;9579;49.488;8.226;2022-10-16T15:47:55;5.43;;;2.70;;
18893;SDS011;9579;49.488;8.226;2022-10-16T15:50:42;3.58;;;3.15;;
18893;SDS011;9579;49.488;8.226;2022-10-16T15:53:29;3.58;;;3.00;;
18893;SDS011;9579;49.488;8.226;2022-10-16T15:56:16;3.38;;;3.08;;
18893;SDS011;9579;49.488;8.226;2022-10-16T15:59:04;4.07;;;2.72;;
18893;SDS011;9579;49.488;8.226;2022-10-16T16:01:52;2.95;;;2.72;;
18893;SDS011;9579;49.488;8.226;2022-10-16T16:04:39;3.30;;;3.00;;
18893;SDS011;9579;49.488;8.226;2022-10-16T16:07:26;5.20;;;2.83;;
18893;SDS011;9579;49.488;8.226;2022-10-16T16:10:14;3.17;;;2.97;;
18893;SDS011;9579;49.488;8.226;2022-10-16T16:13:01;3.72;;;2.63;;
18893;SDS011;9579;49.488;8.226;2022-10-16T16:15:48;3.28;;;3.00;;
18893;SDS011;9579;49.488;8.226;2022-10-16T16:18:37;4.38;;;3.10;;
18893;SDS011;9579;49.488;8.226;2022-10-16T16:21:25;3.92;;;3.00;;
18893;SDS011;9579;49.488;8.226;2022-10-16T16:24:12;5.00;;;3.38;;
18893;SDS011;9579;49.488;8.226;2022-10-16T16:27:00;6.03;;;3.72;;
18893;SDS011;9579;49.488;8.226;2022-10-16T16:29:47;5.57;;;4.97;;
18893;SDS011;9579;49.488;8.226;2022-10-16T16:32:34;9.73;;;5.38;;
18893;SDS011;9579;49.488;8.226;2022-10-16T16:35:22;6.60;;;5.50;;
18893;SDS011;9579;49.488;8.226;2022-10-16T16:38:09;7.63;;;6.47;;
18893;SDS011;9579;49.488;8.226;2022-10-16T16:40:56;7.38;;;6.70;;
18893;SDS011;9579;49.488;8.226;2022-10-16T16:43:43;9.68;;;7.47;;
18893;SDS011;9579;49.488;8.226;2022-10-16T16:46:34;13.45;;;7.18;;
18893;SDS011;9579;49.488;8.226;2022-10-16T16:49:21;13.35;;;6.80;;
18893;SDS011;9579;49.488;8.226;2022-10-16T16:52:09;8.77;;;5.05;;
18893;SDS011;9579;49.488;8.226;2022-10-16T16:54:57;6.55;;;4.70;;
18893;SDS011;9579;49.488;8.226;2022-10-16T16:57:44;5.32;;;4.30;;
18893;SDS011;9579;49.488;8.226;2022-10-16T17:00:31;5.78;;;4.72;;
18893;SDS011;9579;49.488;8.226;2022-10-16T17:03:18;4.82;;;4.38;;
18893;SDS011;9579;49.488;8.226;2022-10-16T17:06:07;5.18;;;4.78;;
18893;SDS011;9579;49.488;8.226;2022-10-16T17:08:57;4.82;;;4.43;;
18893;SDS011;9579;49.488;8.226;2022-10-16T17:11:45;5.38;;;4.88;;
18893;SDS011;9579;49.488;8.226;2022-10-16T17:14:33;5.20;;;4.70;;
18893;SDS011;9579;49.488;8.226;2022-10-16T17:17:20;5.47;;;4.97;;
18893;SDS011;9579;49.488;8.226;2022-10-16T17:20:08;4.82;;;4.53;;
18893;SDS011;9579;49.488;8.226;2022-10-16T17:22:55;5.47;;;4.90;;
18893;SDS011;9579;49.488;8.226;2022-10-16T17:25:44;5.13;;;4.70;;
18893;SDS011;9579;49.488;8.226;2022-10-16T17:28:32;10.80;;;9.73;;
18893;SDS011;9579;49.488;8.226;2022-10-16T17:31:20;23.02;;;20.73;;
18893;SDS011;9579;49.488;8.226;2022-10-16T17:34:09;14.15;;;12.75;;
18893;SDS011;9579;49.488;8.226;2022-10-16T17:36:57;12.40;;;11.25;;
18893;SDS011;9579;49.488;8.226;2022-10-16T17:39:44;10.75;;;9.65;;
18893;SDS011;9579;49.488;8.226;2022-10-16T17:42:32;7.65;;;6.80;;
18893;SDS011;9579;49.488;8.226;2022-10-16T17:45:19;8.00;;;7.30;;
18893;SDS011;9579;49.488;8.226;2022-10-16T17:48:07;11.65;;;10.45;;
18893;SDS011;9579;49.488;8.226;2022-10-16T17:50:54;14.35;;;12.88;;
18893;SDS011;9579;49.488;8.226;2022-10-16T17:53:41;17.55;;;15.70;;
18893;SDS011;9579;49.488;8.226;2022-10-16T17:56:29;22.95;;;20.55;;
18893;SDS011;9579;49.488;8.226;2022-10-16T17:59:17;23.10;;;20.48;;
18893;SDS011;9579;49.488;8.226;2022-10-16T18:02:08;20.70;;;18.60;;
18893;SDS011;9579;49.488;8.226;2022-10-16T18:04:55;17.30;;;15.45;;
18893;SDS011;9579;49.488;8.226;2022-10-16T18:07:43;17.40;;;15.57;;
18893;SDS011;9579;49.488;8.226;2022-10-16T18:10:30;14.93;;;13.30;;
18893;SDS011;9579;49.488;8.226;2022-10-16T18:13:17;15.38;;;13.77;;
18893;SDS011;9579;49.488;8.226;2022-10-16T18:16:06;17.80;;;15.90;;
18893;SDS011;9579;49.488;8.226;2022-10-16T18:18:55;20.92;;;16.08;;
18893;SDS011;9579;49.488;8.226;2022-10-16T18:22:06;15.57;;;13.82;;
18893;SDS011;9579;49.488;8.226;2022-10-16T19:05:10;7.03;;;6.30;;
18893;SDS011;9579;49.488;8.226;2022-10-16T19:08:39;5.32;;;4.93;;
18893;SDS011;9579;49.488;8.226;2022-10-16T20:19:18;7.05;;;6.20;;
18893;SDS011;9579;49.488;8.226;2022-10-16T20:42:52;6.60;;;6.00;;
18893;SDS011;9579;49.488;8.226;2022-10-16T20:46:31;7.20;;;5.45;;
18893;SDS011;9579;49.488;8.226;2022-10-16T20:54:43;5.80;;;5.20;;
18893;SDS011;9579;49.488;8.226;2022-10-16T21:11:27;5.10;;;4.57;;
18893;SDS011;9579;49.488;8.226;2022-10-16T21:21:37;4.28;;;3.80;;
18893;SDS011;9579;49.488;8.226;2022-10-16T21:25:04;4.18;;;3.70;;
18893;SDS011;9579;49.488;8.226;2022-10-16T21:28:16;7.65;;;5.00;;
18893;SDS011;9579;49.488;8.226;2022-10-16T21:31:38;4.57;;;4.18;;
18893;SDS011;9579;49.488;8.226;2022-10-16T21:49:05;8.85;;;6.75;;
18893;SDS011;9579;49.488;8.226;2022-10-16T21:52:17;8.50;;;6.40;;
18893;SDS011;9579;49.488;8.226;2022-10-16T21:55:25;8.98;;;6.88;;
18893;SDS011;9579;49.488;8.226;2022-10-16T21:59:28;8.82;;;7.30;;
18893;SDS011;9579;49.488;8.226;2022-10-16T22:02:35;9.93;;;7.82;;
18893;SDS011;9579;49.488;8.226;2022-10-16T22:12:44;10.65;;;7.18;;
18893;SDS011;9579;49.488;8.226;2022-10-16T22:15:58;8.70;;;6.10;;
18893;SDS011;9579;49.488;8.226;2022-10-16T22:20:24;7.78;;;5.28;;
18893;SDS011;9579;49.488;8.226;2022-10-16T22:22:54;7.15;;;5.50;;
18893;SDS011;9579;49.488;8.226;2022-10-16T22:29:49;7.90;;;7.10;;
18893;SDS011;9579;49.488;8.226;2022-10-16T22:33:27;9.15;;;6.97;;
18893;SDS011;9579;49.488;8.226;2022-10-16T22:36:47;7.90;;;7.05;;
18893;SDS011;9579;49.488;8.226;2022-10-16T22:39:43;9.73;;;7.22;;
18893;SDS011;9579;49.488;8.226;2022-10-16T22:43:09;8.20;;;7.30;;
18893;SDS011;9579;49.488;8.226;2022-10-16T22:46:32;9.18;;;7.72;;
18893;SDS011;9579;49.488;8.226;2022-10-16T22:49:50;9.88;;;7.47;;
18893;SDS011;9579;49.488;8.226;2022-10-16T22:52:56;10.82;;;7.55;;
18893;SDS011;9579;49.488;8.226;2022-10-16T22:56:20;9.18;;;7.63;;
18893;SDS011;9579;49.488;8.226;2022-10-16T22:59:24;11.00;;;8.38;;
